Time;durP1;ratioP1;P1;durP2;ratioP2;P2;SDS_P1;SDS_P2;PMS_P1;PMS_P2;Temp;Humidity;BMP_temperature;BMP_pressure;BME280_temperature;BME280_humidity;BME280_pressure;Samples;Min_cycle;Max_cycle;Signal;HPM_P1;HPM_P2
2022/09/25 00:01:41;;;;;;;3.80;1.50;;;7.40;99.90;;;;;;5094095;27;21310;-53
2022/09/25 00:04:06;;;;;;;6.18;1.70;;;7.70;99.90;;;;;;5094147;28;20047;-52
2022/09/25 00:06:32;;;;;;;6.28;1.50;;;8.70;99.90;;;;;;5093174;28;20051;-53
2022/09/25 00:09:00;;;;;;;5.32;1.50;;;7.20;99.90;;;;;;5093256;27;20039;-53
2022/09/25 00:11:29;;;;;;;4.97;1.67;;;7.90;99.90;;;;;;5092740;28;20089;-53
2022/09/25 00:13:56;;;;;;;6.75;1.60;;;9.30;99.90;;;;;;5093419;28;20411;-53
2022/09/25 00:16:26;;;;;;;3.38;1.50;;;7.10;99.90;;;;;;5093720;27;20394;-53
2022/09/25 00:21:37;;;;;;;3.72;1.10;;;5.90;99.90;;;;;;5091218;28;20154;-51
2022/09/25 00:24:06;;;;;;;4.75;1.40;;;7.60;99.90;;;;;;5092290;28;20079;-51
2022/09/25 00:26:35;;;;;;;11.65;1.60;;;7.20;99.90;;;;;;5093037;28;20621;-53
2022/09/25 00:29:02;;;;;;;5.75;1.50;;;7.20;99.90;;;;;;5092364;28;20042;-49
2022/09/25 00:31:28;;;;;;;4.78;1.48;;;7.20;99.90;;;;;;5089768;28;20426;-51
2022/09/25 00:33:57;;;;;;;8.00;2.03;;;8.10;99.90;;;;;;5091092;28;20100;-51
2022/09/25 00:36:23;;;;;;;5.70;1.52;;;7.30;99.90;;;;;;5091931;28;20191;-54
2022/09/25 00:38:49;;;;;;;3.55;1.48;;;7.20;99.90;;;;;;5093025;28;20127;-51
2022/09/25 00:41:18;;;;;;;4.57;1.70;;;7.30;99.90;;;;;;5092230;28;20043;-54
2022/09/25 00:43:47;;;;;;;3.92;1.40;;;6.80;99.90;;;;;;5091441;28;20154;-54
2022/09/25 00:46:16;;;;;;;7.40;2.10;;;8.30;99.90;;;;;;5092783;28;20082;-55
2022/09/25 00:48:53;;;;;;;10.32;2.47;;;7.30;99.90;;;;;;5092741;28;20031;-51
2022/09/25 00:51:28;;;;;;;9.98;2.10;;;7.20;99.90;;;;;;5093051;28;20039;-54
2022/09/25 00:53:58;;;;;;;4.93;1.20;;;7.10;99.90;;;;;;5092189;28;20424;-54
2022/09/25 00:56:27;;;;;;;9.75;2.17;;;7.30;99.90;;;;;;5093104;27;20941;-53
2022/09/25 00:58:53;;;;;;;13.45;1.80;;;7.30;99.90;;;;;;5096591;27;20067;-52
2022/09/25 01:01:18;;;;;;;5.10;1.75;;;8.80;99.90;;;;;;5095968;27;20889;-51
2022/09/25 01:03:45;;;;;;;3.58;1.40;;;7.30;99.90;;;;;;5096358;27;20542;-55
2022/09/25 01:06:13;;;;;;;5.47;1.92;;;7.60;99.90;;;;;;5096296;27;20102;-52
2022/09/25 01:08:40;;;;;;;7.30;1.85;;;7.40;99.90;;;;;;5096167;28;20118;-54
2022/09/25 01:11:06;;;;;;;5.85;2.30;;;7.40;99.90;;;;;;5097224;27;20047;-53
2022/09/25 01:13:32;;;;;;;7.15;1.80;;;7.80;99.90;;;;;;5096470;28;20036;-51
2022/09/25 01:16:19;;;;;;;4.93;1.52;;;9.30;99.90;;;;;;5096328;27;20171;-52
2022/09/25 01:18:57;;;;;;;6.55;1.95;;;7.20;99.90;;;;;;5095964;28;20147;-54
2022/09/25 01:21:30;;;;;;;10.52;1.98;;;8.10;99.90;;;;;;5095763;27;20079;-53
2022/09/25 01:24:02;;;;;;;9.23;2.13;;;8.20;99.90;;;;;;5095723;27;20039;-54
2022/09/25 01:26:43;;;;;;;7.20;2.63;;;7.40;99.90;;;;;;5096803;27;20039;-51
2022/09/25 01:29:34;;;;;;;7.57;2.17;;;8.90;99.90;;;;;;5096654;27;20055;-50
2022/09/25 01:32:03;;;;;;;7.75;2.47;;;7.50;99.90;;;;;;5095562;27;20399;-51
2022/09/25 01:34:44;;;;;;;5.55;2.20;;;7.20;99.90;;;;;;5095682;27;20126;-53
2022/09/25 01:37:18;;;;;;;6.50;2.08;;;7.40;99.90;;;;;;5095813;27;20461;-51
2022/09/25 01:39:50;;;;;;;5.57;2.13;;;7.30;99.90;;;;;;5095666;27;20098;-54
2022/09/25 01:42:25;;;;;;;6.13;2.80;;;7.50;99.90;;;;;;5095126;27;20039;-52
2022/09/25 01:45:03;;;;;;;9.38;2.95;;;8.00;99.90;;;;;;5096258;27;20124;-52
2022/09/25 01:47:33;;;;;;;12.88;3.42;;;9.50;99.90;;;;;;5094959;27;20128;-54
2022/09/25 01:50:02;;;;;;;12.75;3.13;;;7.80;99.90;;;;;;5095206;27;20035;-54
2022/09/25 01:52:34;;;;;;;13.90;2.47;;;8.50;99.90;;;;;;5094734;28;20097;-53
2022/09/25 01:55:13;;;;;;;6.47;2.20;;;7.30;99.90;;;;;;5094822;27;20047;-52
2022/09/25 01:57:54;;;;;;;17.23;3.35;;;7.40;99.90;;;;;;5095208;27;20114;-54
2022/09/25 02:00:23;;;;;;;4.93;2.00;;;7.80;99.90;;;;;;5094405;27;20192;-54
2022/09/25 02:02:54;;;;;;;4.80;2.00;;;7.30;99.90;;;;;;5094761;27;20264;-53
2022/09/25 02:05:38;;;;;;;9.40;2.38;;;8.30;99.90;;;;;;5095013;27;20039;-53
2022/09/25 02:08:10;;;;;;;7.70;2.35;;;7.30;99.90;;;;;;5094593;28;21487;-53
2022/09/25 02:10:45;;;;;;;7.30;1.92;;;7.40;99.90;;;;;;5094830;27;20077;-50
2022/09/25 02:13:16;;;;;;;7.60;2.45;;;7.30;99.90;;;;;;5092650;28;20075;-54
2022/09/25 02:15:52;;;;;;;7.00;2.10;;;7.50;99.90;;;;;;5096052;27;20028;-53
2022/09/25 02:21:26;;;;;;;11.88;2.67;;;7.30;99.90;;;;;;5095106;28;20047;-52
2022/09/25 02:24:01;;;;;;;7.60;1.98;;;7.40;99.90;;;;;;5094759;27;20090;-53
2022/09/25 02:26:28;;;;;;;6.32;2.28;;;7.20;99.90;;;;;;5095196;27;20039;-54
2022/09/25 02:28:54;;;;;;;11.15;2.58;;;7.90;99.90;;;;;;5094971;27;20043;-53
2022/09/25 02:31:34;;;;;;;12.07;2.85;;;7.20;99.90;;;;;;5095106;27;20079;-50
2022/09/25 02:34:00;;;;;;;9.00;2.20;;;7.40;99.90;;;;;;5093709;27;20047;-52
2022/09/25 02:36:26;;;;;;;11.70;2.28;;;7.30;99.90;;;;;;5094231;27;20035;-53
2022/09/25 02:38:54;;;;;;;11.23;3.13;;;7.20;99.90;;;;;;5095904;27;20036;-53
2022/09/25 02:41:26;;;;;;;6.60;2.13;;;7.40;99.90;;;;;;5094486;27;20199;-51
2022/09/25 02:44:17;;;;;;;7.38;2.45;;;8.30;99.90;;;;;;5095419;27;20049;-52
2022/09/25 02:47:07;;;;;;;10.15;2.35;;;7.30;99.90;;;;;;5095297;27;20039;-54
2022/09/25 02:49:59;;;;;;;7.97;1.70;;;7.30;99.90;;;;;;5095049;27;20096;-54
2022/09/25 02:52:45;;;;;;;4.93;1.63;;;7.40;99.90;;;;;;5094162;27;20104;-52
2022/09/25 02:55:26;;;;;;;3.50;1.80;;;7.10;99.90;;;;;;5093665;27;20060;-51
2022/09/25 02:58:00;;;;;;;6.43;1.30;;;8.40;99.90;;;;;;5092896;27;20089;-54
2022/09/25 03:00:26;;;;;;;5.03;1.83;;;7.30;99.90;;;;;;5094101;27;20131;-54
2022/09/25 03:02:58;;;;;;;4.22;1.52;;;7.20;99.90;;;;;;5092984;27;20388;-52
2022/09/25 03:05:24;;;;;;;6.80;1.50;;;7.10;99.90;;;;;;5093509;27;20187;-52
2022/09/25 03:10:37;;;;;;;6.60;2.20;;;7.30;99.90;;;;;;5094835;27;20048;-53
2022/09/25 03:13:32;;;;;;;6.55;1.40;;;9.00;99.90;;;;;;5093525;27;20054;-53
2022/09/25 03:16:33;;;;;;;5.45;1.63;;;7.40;99.90;;;;;;5085300;28;20242;-52
2022/09/25 03:19:00;;;;;;;6.75;1.80;;;7.20;99.90;;;;;;5075811;27;20436;-53
2022/09/25 03:21:25;;;;;;;10.43;1.88;;;7.50;99.90;;;;;;5092485;27;20039;-52
2022/09/25 03:23:51;;;;;;;3.90;1.50;;;8.90;99.90;;;;;;5094045;27;20047;-52
2022/09/25 03:26:17;;;;;;;4.65;1.70;;;7.70;99.90;;;;;;5091998;27;20047;-53
2022/09/25 03:28:42;;;;;;;5.57;1.80;;;7.60;99.90;;;;;;5094691;27;20035;-52
2022/09/25 03:31:11;;;;;;;9.40;1.98;;;9.50;99.90;;;;;;5093541;27;20103;-51
2022/09/25 03:33:39;;;;;;;10.82;2.20;;;9.20;99.90;;;;;;5093958;27;20509;-52
2022/09/25 03:36:13;;;;;;;7.95;1.77;;;8.00;99.90;;;;;;5094605;27;20057;-54
2022/09/25 03:38:40;;;;;;;11.70;2.53;;;8.40;99.90;;;;;;5092921;27;20032;-53
2022/09/25 03:41:08;;;;;;;11.43;2.20;;;7.70;99.90;;;;;;5093663;28;20338;-54
2022/09/25 03:43:39;;;;;;;10.55;2.20;;;7.70;99.90;;;;;;5093969;27;20039;-52
2022/09/25 03:46:06;;;;;;;7.50;2.03;;;7.70;99.90;;;;;;5093844;28;20048;-53
2022/09/25 03:48:32;;;;;;;9.48;1.92;;;8.60;99.90;;;;;;5091477;28;20437;-53
2022/09/25 03:50:59;;;;;;;7.35;2.28;;;7.80;99.90;;;;;;5092909;27;20043;-54
2022/09/25 03:53:26;;;;;;;10.23;2.58;;;8.00;99.90;;;;;;5093853;28;20096;-53
2022/09/25 03:55:52;;;;;;;7.53;2.28;;;7.60;99.90;;;;;;5093420;27;20062;-51
2022/09/25 03:58:18;;;;;;;11.85;2.30;;;7.70;99.90;;;;;;5093056;27;20064;-52
2022/09/25 04:00:45;;;;;;;5.72;1.48;;;8.70;99.90;;;;;;5093221;27;20103;-50
2022/09/25 04:03:12;;;;;;;8.75;2.47;;;7.60;99.90;;;;;;5093316;27;20635;-53
2022/09/25 04:05:38;;;;;;;5.90;1.90;;;7.60;99.90;;;;;;5092899;28;20039;-54
2022/09/25 04:08:04;;;;;;;8.35;2.17;;;8.90;99.90;;;;;;5092912;27;20063;-52
2022/09/25 04:10:31;;;;;;;11.63;2.33;;;8.30;99.90;;;;;;5092167;27;20047;-52
2022/09/25 04:12:57;;;;;;;8.68;1.83;;;8.50;99.90;;;;;;5092347;28;20115;-53
2022/09/25 04:15:23;;;;;;;11.43;2.15;;;8.50;99.90;;;;;;5093106;28;20057;-53
2022/09/25 04:17:51;;;;;;;7.03;1.33;;;7.60;99.90;;;;;;5093341;28;20040;-54
2022/09/25 04:20:17;;;;;;;12.27;1.70;;;7.60;99.90;;;;;;5091889;28;20134;-51
2022/09/25 04:22:43;;;;;;;8.45;2.15;;;8.50;99.90;;;;;;5091738;28;20067;-52
2022/09/25 04:25:09;;;;;;;8.13;2.10;;;7.60;99.90;;;;;;5092323;28;20182;-53
2022/09/25 04:27:35;;;;;;;5.25;2.10;;;8.00;99.90;;;;;;5091856;28;20074;-54
2022/09/25 04:30:05;;;;;;;8.10;1.90;;;9.30;99.90;;;;;;5091171;28;20104;-50
2022/09/25 04:35:15;;;;;;;6.55;1.70;;;7.60;99.90;;;;;;5092157;28;20054;-53
2022/09/25 04:37:41;;;;;;;3.25;1.45;;;7.70;99.90;;;;;;5092925;28;20039;-54
2022/09/25 04:40:07;;;;;;;3.90;1.42;;;8.30;99.90;;;;;;5091688;28;20101;-53
2022/09/25 04:42:33;;;;;;;9.95;1.77;;;7.40;99.90;;;;;;5091774;28;20048;-50
2022/09/25 04:44:58;;;;;;;7.90;2.38;;;8.90;99.90;;;;;;5092750;28;20069;-53
2022/09/25 04:47:28;;;;;;;7.93;2.40;;;7.90;99.90;;;;;;5094062;28;20048;-53
2022/09/25 04:49:54;;;;;;;6.05;1.90;;;8.70;99.90;;;;;;5092488;28;20561;-52
2022/09/25 04:52:19;;;;;;;10.23;2.20;;;8.10;99.90;;;;;;5093255;28;20035;-54
2022/09/25 04:54:46;;;;;;;6.47;1.88;;;8.20;99.90;;;;;;5093129;28;20046;-53
2022/09/25 04:57:17;;;;;;;6.10;2.05;;;7.40;99.90;;;;;;5092802;28;20044;-53
2022/09/25 04:59:43;;;;;;;7.40;2.20;;;7.30;99.90;;;;;;5093284;28;20179;-54
2022/09/25 05:02:11;;;;;;;11.18;2.85;;;7.40;99.90;;;;;;5093475;28;20671;-50
2022/09/25 05:04:37;;;;;;;8.00;2.20;;;7.60;99.90;;;;;;5093284;28;20036;-53
2022/09/25 05:07:03;;;;;;;9.10;2.63;;;7.80;99.90;;;;;;5092626;28;20042;-53
2022/09/25 05:09:29;;;;;;;12.50;2.53;;;7.80;99.90;;;;;;5092537;28;20040;-54
2022/09/25 05:11:55;;;;;;;8.00;2.47;;;7.60;99.90;;;;;;5092953;28;20303;-54
2022/09/25 05:14:22;;;;;;;7.82;2.20;;;9.50;99.90;;;;;;5092466;28;20044;-53
2022/09/25 05:16:47;;;;;;;5.57;2.22;;;8.00;99.90;;;;;;5092979;28;20127;-50
2022/09/25 05:19:14;;;;;;;7.10;2.20;;;7.50;99.90;;;;;;5092734;28;20039;-53
2022/09/25 05:21:41;;;;;;;7.38;1.95;;;7.80;99.90;;;;;;5091238;28;20126;-51
2022/09/25 05:24:07;;;;;;;9.43;2.25;;;8.60;99.90;;;;;;5092177;28;20034;-54
2022/09/25 05:26:34;;;;;;;7.15;1.73;;;7.40;99.90;;;;;;5091803;28;20046;-54
2022/09/25 05:29:00;;;;;;;6.75;1.50;;;7.60;99.90;;;;;;5091862;28;20075;-53
2022/09/25 05:31:26;;;;;;;3.95;1.50;;;8.00;99.90;;;;;;5091352;28;20035;-52
2022/09/25 05:33:53;;;;;;;10.00;2.00;;;7.70;99.90;;;;;;5090504;28;20059;-53
2022/09/25 05:36:19;;;;;;;8.00;1.85;;;7.90;99.90;;;;;;5090949;28;20039;-53
2022/09/25 05:38:45;;;;;;;6.53;1.80;;;7.50;99.90;;;;;;5091977;27;20035;-54
2022/09/25 05:41:12;;;;;;;7.20;1.80;;;7.90;99.90;;;;;;5090675;28;20562;-53
2022/09/25 05:43:40;;;;;;;5.20;1.48;;;8.40;99.90;;;;;;5095441;27;20572;-53
2022/09/25 05:46:06;;;;;;;10.75;2.88;;;7.50;99.90;;;;;;5094550;27;20047;-52
2022/09/25 05:48:32;;;;;;;6.18;1.85;;;7.90;99.90;;;;;;5095829;28;20032;-51
2022/09/25 05:50:58;;;;;;;5.38;1.90;;;8.00;99.90;;;;;;5092672;27;20100;-53
2022/09/25 05:53:25;;;;;;;3.53;1.20;;;8.40;99.90;;;;;;5093148;27;20122;-54
2022/09/25 05:55:57;;;;;;;4.35;0.90;;;7.40;99.90;;;;;;5093198;27;20047;-53
2022/09/25 05:58:23;;;;;;;5.90;1.73;;;7.40;99.90;;;;;;5093886;27;20467;-51
2022/09/25 06:00:49;;;;;;;5.03;1.20;;;7.40;99.90;;;;;;5095308;27;20090;-54
2022/09/25 06:03:16;;;;;;;8.10;1.73;;;7.50;99.90;;;;;;5094549;27;20043;-51
2022/09/25 06:05:44;;;;;;;3.20;1.50;;;7.60;99.90;;;;;;5094897;27;20594;-56
2022/09/25 06:08:10;;;;;;;8.10;1.50;;;8.70;99.90;;;;;;5094190;28;20036;-56
2022/09/25 06:10:35;;;;;;;8.00;2.00;;;9.70;99.90;;;;;;5092921;27;20035;-56
2022/09/25 06:13:03;;;;;;;12.10;1.98;;;7.70;99.90;;;;;;5095239;27;20040;-56
2022/09/25 06:15:36;;;;;;;6.70;2.10;;;9.40;99.90;;;;;;5094292;27;20569;-56
2022/09/25 06:18:04;;;;;;;6.40;2.00;;;9.90;99.90;;;;;;5094862;27;20520;-56
2022/09/25 06:20:29;;;;;;;5.82;2.00;;;8.00;99.90;;;;;;5095765;27;20364;-57
2022/09/25 06:22:56;;;;;;;9.00;2.17;;;8.50;99.90;;;;;;5095831;27;20058;-56
2022/09/25 06:25:25;;;;;;;5.25;1.70;;;10.40;99.90;;;;;;5093123;27;20229;-56
2022/09/25 06:27:52;;;;;;;7.50;1.95;;;8.40;99.90;;;;;;5095042;27;20432;-56
2022/09/25 06:30:19;;;;;;;11.80;3.08;;;8.70;99.90;;;;;;5127356;27;20071;-56
2022/09/25 06:32:45;;;;;;;7.28;2.20;;;8.70;99.90;;;;;;5094172;27;20038;-55
2022/09/25 06:35:10;;;;;;;7.35;2.20;;;9.00;99.90;;;;;;5095733;27;20036;-56
2022/09/25 06:37:36;;;;;;;7.22;2.00;;;9.20;99.90;;;;;;5093843;27;20042;-56
2022/09/25 06:40:02;;;;;;;14.65;2.20;;;9.60;99.90;;;;;;5094516;28;20134;-56
2022/09/25 06:42:28;;;;;;;7.70;2.10;;;10.00;99.90;;;;;;5093965;27;20040;-56
2022/09/25 06:44:53;;;;;;;6.35;1.60;;;10.50;99.90;;;;;;5095507;27;20043;-56
2022/09/25 06:47:20;;;;;;;8.57;1.88;;;11.10;99.90;;;;;;5094723;27;20139;-56
2022/09/25 06:49:46;;;;;;;6.97;1.77;;;11.40;99.90;;;;;;5093517;27;20040;-56
2022/09/25 06:52:12;;;;;;;7.82;1.63;;;11.30;99.90;;;;;;5094073;27;21239;-56
2022/09/25 06:54:37;;;;;;;11.35;1.77;;;13.50;99.90;;;;;;5093119;28;20565;-56
2022/09/25 06:57:03;;;;;;;7.15;2.17;;;11.30;99.90;;;;;;5092305;27;20048;-58
2022/09/25 06:59:29;;;;;;;6.32;1.58;;;11.70;99.90;;;;;;5091587;27;20049;-59
2022/09/25 07:03:43;;;;;;;7.50;1.65;;;11.40;99.90;;;;;;5093646;27;20100;-59
2022/09/25 07:04:40;;;;;;;7.07;1.40;;;11.50;99.90;;;;;;5091673;28;20050;-60
2022/09/25 07:07:07;;;;;;;7.13;1.42;;;13.80;99.90;;;;;;5092589;27;20043;-59
2022/09/25 07:09:32;;;;;;;6.43;1.60;;;13.20;99.90;;;;;;5092609;27;20113;-59
2022/09/25 07:11:58;;;;;;;5.18;1.33;;;11.60;99.90;;;;;;5093128;28;20134;-60
2022/09/25 07:14:24;;;;;;;10.95;1.73;;;13.80;99.90;;;;;;5092579;27;20088;-61
2022/09/25 07:16:50;;;;;;;7.80;1.27;;;12.30;99.90;;;;;;5093215;28;20657;-60
2022/09/25 07:19:16;;;;;;;10.55;1.30;;;12.80;99.90;;;;;;5094565;27;20867;-58
2022/09/25 07:21:42;;;;;;;8.80;2.03;;;13.00;99.90;;;;;;5093854;27;20089;-59
2022/09/25 07:24:09;;;;;;;5.43;1.20;;;13.30;99.90;;;;;;5092137;27;20982;-59
2022/09/25 07:26:35;;;;;;;9.50;0.98;;;13.50;99.90;;;;;;5093247;28;20039;-62
2022/09/25 07:29:03;;;;;;;7.93;1.02;;;13.80;97.50;;;;;;5093077;27;20043;-60
2022/09/25 07:31:33;;;;;;;5.45;1.20;;;14.10;95.30;;;;;;5076679;28;20123;-60
2022/09/25 07:34:07;;;;;;;6.72;1.20;;;14.00;90.30;;;;;;5094540;27;20039;-60
2022/09/25 07:36:37;;;;;;;8.68;1.13;;;13.70;85.50;;;;;;5093795;27;20122;-60
2022/09/25 07:39:03;;;;;;;7.38;1.33;;;15.00;89.50;;;;;;5093834;28;20138;-60
2022/09/25 07:41:29;;;;;;;3.03;0.90;;;13.30;93.00;;;;;;5093616;28;20040;-60
2022/09/25 07:43:56;;;;;;;7.35;1.25;;;13.40;97.60;;;;;;5092809;27;20047;-59
2022/09/25 07:46:23;;;;;;;6.45;1.17;;;13.70;99.50;;;;;;5094416;27;20422;-60
2022/09/25 07:48:49;;;;;;;7.68;1.00;;;16.00;99.90;;;;;;5095300;27;20039;-60
2022/09/25 07:51:16;;;;;;;16.38;2.63;;;14.00;85.40;;;;;;5092521;28;20446;-60
2022/09/25 07:53:42;;;;;;;6.25;1.50;;;14.10;93.10;;;;;;5092842;27;20220;-60
2022/09/25 07:56:09;;;;;;;8.80;1.20;;;14.30;92.70;;;;;;5092593;27;20031;-60
2022/09/25 07:58:35;;;;;;;8.82;1.25;;;14.70;82.00;;;;;;5089822;27;20710;-60
2022/09/25 08:01:04;;;;;;;6.43;1.20;;;14.80;74.40;;;;;;5093510;27;20108;-60
2022/09/25 08:03:31;;;;;;;7.68;1.00;;;15.00;69.60;;;;;;5094340;27;20682;-61
2022/09/25 08:06:04;;;;;;;6.32;1.25;;;14.90;66.00;;;;;;5092297;28;20519;-60
2022/09/25 08:08:32;;;;;;;4.90;0.80;;;15.10;55.50;;;;;;5093140;27;20047;-61
2022/09/25 08:11:05;;;;;;;8.90;1.23;;;14.80;56.50;;;;;;5091854;27;20447;-60
2022/09/25 08:13:32;;;;;;;8.95;1.90;;;14.60;50.20;;;;;;5091963;28;20412;-60
2022/09/25 08:16:00;;;;;;;7.97;1.20;;;14.50;49.30;;;;;;5090778;27;20043;-60
2022/09/25 08:18:26;;;;;;;6.93;1.00;;;14.10;44.30;;;;;;5091707;27;20445;-60
2022/09/25 08:20:51;;;;;;;11.63;1.30;;;13.70;46.30;;;;;;5091498;28;20035;-61
2022/09/25 08:23:17;;;;;;;7.80;1.30;;;13.60;44.90;;;;;;5091048;28;20043;-60
2022/09/25 08:25:48;;;;;;;6.30;1.20;;;13.60;56.30;;;;;;5092629;28;20056;-60
2022/09/25 08:28:14;;;;;;;9.10;1.27;;;13.10;62.40;;;;;;5093681;28;20310;-60
2022/09/25 08:30:42;;;;;;;8.30;1.10;;;13.20;62.90;;;;;;5093402;28;20162;-60
2022/09/25 08:33:11;;;;;;;11.38;1.33;;;13.30;78.10;;;;;;5092691;28;20152;-60
2022/09/25 08:35:38;;;;;;;6.45;0.82;;;13.20;82.80;;;;;;5092016;28;20035;-60
2022/09/25 08:38:04;;;;;;;10.93;1.30;;;12.80;81.80;;;;;;5092089;28;20058;-61
2022/09/25 08:40:30;;;;;;;7.15;2.03;;;12.90;81.90;;;;;;5093211;28;20485;-60
2022/09/25 08:42:57;;;;;;;4.60;1.15;;;13.00;86.90;;;;;;5092454;28;20557;-59
2022/09/25 08:51:06;;;;;;;10.02;1.42;;;13.10;93.80;;;;;;5092099;28;20101;-60
2022/09/25 08:53:34;;;;;;;8.80;1.25;;;13.10;93.20;;;;;;5092115;28;20039;-59
2022/09/25 08:56:13;;;;;;;6.55;1.23;;;13.10;92.50;;;;;;5092234;28;20075;-59
2022/09/25 08:58:42;;;;;;;6.03;0.93;;;13.40;91.30;;;;;;5092711;28;20523;-59
2022/09/25 09:01:14;;;;;;;4.72;0.90;;;13.90;85.10;;;;;;5093322;28;20088;-60
2022/09/25 09:04:00;;;;;;;7.97;1.20;;;13.80;80.40;;;;;;5093414;28;20089;-60
2022/09/25 09:06:28;;;;;;;4.60;0.70;;;13.80;75.90;;;;;;5094068;28;20043;-59
2022/09/25 09:09:05;;;;;;;6.43;0.90;;;16.10;75.90;;;;;;5092466;28;20051;-60
2022/09/25 09:11:41;;;;;;;7.22;0.93;;;14.10;51.40;;;;;;5092105;28;20032;-59
2022/09/25 09:14:15;;;;;;;8.00;1.27;;;14.30;39.00;;;;;;5091073;28;20047;-59
2022/09/25 09:16:45;;;;;;;2.28;0.77;;;14.40;31.70;;;;;;5091721;28;20035;-59
2022/09/25 09:19:12;;;;;;;6.53;0.95;;;14.70;39.30;;;;;;5096153;27;20406;-59
2022/09/25 09:21:47;;;;;;;7.13;0.90;;;14.60;35.50;;;;;;5094890;27;20135;-59
2022/09/25 09:24:26;;;;;;;6.13;1.00;;;14.70;1.00;;;;;;5095433;27;20063;-59
2022/09/25 09:27:29;;;;;;;3.90;0.70;;;14.50;1.00;;;;;;5094696;27;20510;-60
2022/09/25 09:30:01;;;;;;;5.85;1.10;;;14.60;12.30;;;;;;5042461;28;20140;-60
2022/09/25 09:32:39;;;;;;;5.65;0.90;;;14.90;16.30;;;;;;5096090;27;20346;-59
2022/09/25 09:35:19;;;;;;;3.78;0.55;;;14.80;1.00;;;;;;5094706;27;21218;-60
2022/09/25 09:37:45;;;;;;;3.70;0.80;;;14.80;1.00;;;;;;5097120;27;21156;-60
2022/09/25 09:40:19;;;;;;;2.45;0.40;;;15.10;1.00;;;;;;5095345;28;20126;-60
2022/09/25 09:42:53;;;;;;;2.10;0.40;;;15.20;1.00;;;;;;5094938;27;21261;-60
2022/09/25 09:45:23;;;;;;;1.52;0.32;;;15.20;99.90;;;;;;5095602;27;20044;-60
2022/09/25 09:48:20;;;;;;;2.85;0.40;;;15.10;99.90;;;;;;5094771;27;20047;-60
2022/09/25 09:50:55;;;;;;;1.88;0.50;;;15.10;1.00;;;;;;5076764;27;20047;-60
2022/09/25 09:53:39;;;;;;;5.38;0.70;;;14.90;1.00;;;;;;5095140;27;20106;-60
2022/09/25 09:56:17;;;;;;;2.72;0.45;;;14.80;1.00;;;;;;5094847;27;20075;-60
2022/09/25 09:58:49;;;;;;;3.50;0.60;;;15.00;1.00;;;;;;5094384;27;20048;-59
2022/09/25 10:01:17;;;;;;;4.63;0.80;;;16.80;1.00;;;;;;5095080;27;20404;-60
2022/09/25 10:03:46;;;;;;;3.40;0.88;;;14.80;1.00;;;;;;5095048;27;20047;-60
2022/09/25 10:06:15;;;;;;;5.18;0.90;;;14.70;1.00;;;;;;5095273;28;20039;-60
2022/09/25 10:08:41;;;;;;;3.00;0.80;;;14.50;1.00;;;;;;5096288;27;21104;-60
2022/09/25 10:11:16;;;;;;;6.75;0.90;;;14.30;1.00;;;;;;5095060;27;20040;-60
2022/09/25 10:13:43;;;;;;;11.43;1.15;;;14.30;1.00;;;;;;5095903;27;20462;-60
2022/09/25 10:16:11;;;;;;;6.80;1.02;;;14.40;1.00;;;;;;5094935;28;20028;-60
2022/09/25 10:18:55;;;;;;;3.78;1.20;;;14.50;1.00;;;;;;5096128;27;20047;-60
2022/09/25 10:21:29;;;;;;;3.42;0.70;;;14.70;1.00;;;;;;5095433;27;20381;-60
2022/09/25 10:23:57;;;;;;;5.25;0.70;;;14.50;4.40;;;;;;5094133;27;20062;-59
2022/09/25 10:26:37;;;;;;;5.28;0.85;;;14.60;2.70;;;;;;5095165;27;20201;-60
2022/09/25 10:29:24;;;;;;;3.22;0.47;;;14.70;1.00;;;;;;5093615;28;20087;-60
2022/09/25 10:31:59;;;;;;;5.93;0.45;;;14.60;1.00;;;;;;5094774;27;20043;-60
2022/09/25 10:34:28;;;;;;;3.50;0.82;;;14.90;1.00;;;;;;5095164;27;20424;-60
2022/09/25 10:36:54;;;;;;;1.38;0.30;;;15.00;1.00;;;;;;5093943;27;20459;-60
2022/09/25 10:39:31;;;;;;;2.72;0.50;;;15.30;99.90;;;;;;5094176;27;20055;-60
2022/09/25 10:41:59;;;;;;;1.95;0.40;;;15.30;99.90;;;;;;5094371;28;20051;-60
2022/09/25 10:44:32;;;;;;;2.67;0.50;;;15.50;99.90;;;;;;5093755;27;20047;-60
2022/09/25 10:50:21;;;;;;;1.15;0.28;;;15.50;99.90;;;;;;5094430;28;20116;-60
2022/09/25 10:52:57;;;;;;;4.50;0.60;;;15.80;99.90;;;;;;5093599;27;20046;-60
2022/09/25 10:55:31;;;;;;;2.65;0.40;;;15.70;99.90;;;;;;5093823;27;20040;-60
2022/09/25 10:58:11;;;;;;;2.80;0.35;;;15.80;99.90;;;;;;5093647;27;20491;-60
2022/09/25 11:00:52;;;;;;;3.70;0.40;;;15.90;99.90;;;;;;5093363;28;20079;-59
2022/09/25 11:03:23;;;;;;;1.60;0.50;;;15.90;1.00;;;;;;5093778;27;20039;-60
2022/09/25 11:05:53;;;;;;;3.42;0.60;;;15.90;28.40;;;;;;5093181;27;20134;-60
2022/09/25 11:08:22;;;;;;;2.15;0.47;;;15.90;99.20;;;;;;5094430;27;20374;-60
2022/09/25 11:10:56;;;;;;;3.13;0.50;;;15.90;1.00;;;;;;5092929;28;20032;-60
2022/09/25 11:13:27;;;;;;;2.92;0.45;;;16.10;99.90;;;;;;5093017;27;20437;-60
2022/09/25 11:15:57;;;;;;;2.67;0.52;;;15.90;1.00;;;;;;5093291;27;20143;-60
2022/09/25 11:18:37;;;;;;;2.50;0.50;;;16.10;1.00;;;;;;5093153;28;20050;-60
2022/09/25 11:21:05;;;;;;;4.20;0.40;;;15.90;99.90;;;;;;5094212;28;20613;-60
2022/09/25 11:23:37;;;;;;;4.85;0.70;;;16.00;99.90;;;;;;5093922;27;20126;-60
2022/09/25 11:26:09;;;;;;;;;;;16.20;99.90;;;;;;5094485;28;20078;-60
2022/09/25 11:28:39;;;;;;;4.05;0.52;;;16.10;99.90;;;;;;5094098;28;19930;-60
2022/09/25 11:31:30;;;;;;;2.40;0.50;;;16.30;99.90;;;;;;5094286;28;20055;-60
2022/09/25 11:34:22;;;;;;;3.47;0.60;;;16.40;99.90;;;;;;5093698;27;20048;-60
2022/09/25 11:36:51;;;;;;;;;;;16.50;99.90;;;;;;5094483;27;20039;-60
2022/09/25 11:42:36;;;;;;;3.58;0.50;;;16.40;99.90;;;;;;5092945;28;20048;-59
2022/09/25 11:45:15;;;;;;;2.63;0.60;;;16.70;1.00;;;;;;5081059;28;20046;-60
2022/09/25 11:47:52;;;;;;;4.60;1.20;;;16.90;12.40;;;;;;5093291;28;20297;-60
2022/09/25 11:50:23;;;;;;;2.42;0.50;;;16.80;99.90;;;;;;5094844;28;20035;-60
2022/09/25 11:53:17;;;;;;;2.58;0.50;;;16.80;1.00;;;;;;5093975;27;21135;-60
2022/09/25 11:55:46;;;;;;;3.00;0.57;;;17.00;1.00;;;;;;5093295;27;20035;-60
2022/09/25 11:58:38;;;;;;;2.50;0.40;;;16.90;99.90;;;;;;5093310;27;20143;-60
2022/09/25 12:01:26;;;;;;;4.00;0.60;;;17.20;69.80;;;;;;5092317;28;20047;-60
2022/09/25 12:04:20;;;;;;;7.60;1.02;;;17.10;1.00;;;;;;5092143;28;20703;-59
2022/09/25 12:07:00;;;;;;;4.32;0.70;;;17.30;1.00;;;;;;5092759;28;20100;-60
2022/09/25 12:09:35;;;;;;;3.97;0.65;;;17.40;99.90;;;;;;5093401;28;20040;-60
2022/09/25 12:12:12;;;;;;;4.55;0.98;;;17.50;99.90;;;;;;5092673;27;20131;-60
2022/09/25 12:14:54;;;;;;;4.97;0.63;;;17.60;99.90;;;;;;5092163;27;20035;-60
2022/09/25 12:17:27;;;;;;;1.92;0.47;;;17.50;1.00;;;;;;5093508;27;20039;-61
2022/09/25 12:20:03;;;;;;;3.55;0.65;;;17.50;99.90;;;;;;5093505;27;20520;-60
2022/09/25 12:22:50;;;;;;;5.43;0.98;;;17.30;99.90;;;;;;5092707;28;20183;-61
2022/09/25 12:25:34;;;;;;;5.30;0.75;;;17.30;1.00;;;;;;5093517;28;20139;-60
2022/09/25 12:28:28;;;;;;;2.83;0.70;;;16.70;99.90;;;;;;5092085;28;20078;-59
2022/09/25 12:31:15;;;;;;;4.22;0.70;;;16.30;99.90;;;;;;5092606;28;20044;-60
2022/09/25 12:33:47;;;;;;;4.65;0.70;;;16.00;1.00;;;;;;5092641;28;20040;-60
2022/09/25 12:36:27;;;;;;;3.63;0.70;;;15.90;1.00;;;;;;5093764;28;21112;-60
2022/09/25 12:38:55;;;;;;;4.50;0.70;;;15.60;1.00;;;;;;5091876;28;20134;-60
2022/09/25 12:41:41;;;;;;;3.03;0.50;;;15.40;18.50;;;;;;5092990;28;20035;-60
2022/09/25 12:44:27;;;;;;;5.22;0.60;;;15.60;99.90;;;;;;5090290;28;20040;-60
2022/09/25 12:47:10;;;;;;;4.18;0.50;;;15.70;99.90;;;;;;5090158;28;20081;-60
2022/09/25 12:49:43;;;;;;;2.53;0.50;;;16.00;99.90;;;;;;5093544;28;20048;-60
2022/09/25 12:52:22;;;;;;;4.82;0.60;;;16.00;1.00;;;;;;5093909;28;20522;-61
2022/09/25 12:54:59;;;;;;;3.92;0.77;;;16.10;99.90;;;;;;5096178;28;20036;-61
2022/09/25 12:57:44;;;;;;;7.68;1.10;;;16.30;99.90;;;;;;5096597;28;20130;-60
2022/09/25 13:00:19;;;;;;;2.90;0.50;;;16.30;1.00;;;;;;5097080;27;20113;-59
2022/09/25 13:02:58;;;;;;;4.10;0.60;;;16.20;99.90;;;;;;5096632;28;20055;-60
2022/09/25 13:05:44;;;;;;;3.38;0.68;;;16.00;19.10;;;;;;5095755;28;20136;-59
2022/09/25 13:08:24;;;;;;;6.30;0.60;;;15.50;99.90;;;;;;5094287;28;20047;-60
2022/09/25 13:11:19;;;;;;;4.03;0.68;;;15.30;94.80;;;;;;5096565;28;20035;-59
2022/09/25 13:13:51;;;;;;;3.30;0.65;;;15.20;99.90;;;;;;5094765;27;20043;-60
2022/09/25 13:16:17;;;;;;;2.88;0.70;;;14.90;99.90;;;;;;5095133;27;20696;-59
2022/09/25 13:18:48;;;;;;;5.47;0.63;;;14.90;99.90;;;;;;5097114;27;20061;-60
2022/09/25 13:21:44;;;;;;;8.85;1.00;;;14.80;99.90;;;;;;5097914;27;20092;-59
2022/09/25 13:24:13;;;;;;;4.45;0.70;;;15.10;99.90;;;;;;5094941;27;20051;-60
2022/09/25 13:26:52;;;;;;;7.03;0.80;;;14.90;99.90;;;;;;5093466;27;20056;-60
2022/09/25 13:29:26;;;;;;;7.35;0.60;;;15.10;99.90;;;;;;5092826;27;20135;-60
2022/09/25 13:32:15;;;;;;;5.65;0.80;;;15.10;99.90;;;;;;5095113;27;20390;-61
2022/09/25 13:34:42;;;;;;;5.35;0.80;;;15.20;99.90;;;;;;5094427;27;20051;-60
2022/09/25 13:37:10;;;;;;;3.45;0.40;;;15.40;99.90;;;;;;5094189;27;20399;-60
2022/09/25 13:42:37;;;;;;;10.98;1.13;;;15.60;77.50;;;;;;5094509;27;20043;-60